KROA/ROA METAR and TAF weather

Enter ICAO airport designator
Station Type Date Time Source
KROA METAR 2020/07/11 22:54 UTC NOAA

KROA 112254Z 32009KT 10SM SCT070 30/14 A2987 RMK AO2 SLP098 T03000144


Station Type Date Time Source
KROA Decoded METAR 2020/07/11 22:54 UTC NOAA

ROANOKE REGIONAL AIRPORT, VA, United States (KROA) 37-19N 079-58W 362M
Jul 11, 2020 - 06:54 PM EDT / 2020.07.11 2254 UTC
Wind: from the NW (320 degrees) at 10 MPH (9 KT):0
Visibility: 10 mile(s):0
Sky conditions: partly cloudy
Temperature: 86.0 F (30.0 C)
Dew Point: 57.9 F (14.4 C)
Relative Humidity: 38%
Pressure (altimeter): 29.87 in. Hg (1011 hPa)
ob: KROA 112254Z 32009KT 10SM SCT070 30/14 A2987 RMK AO2 SLP098 T03000144
cycle: 23

Station Type Date Time Source
KROA TAF 2020/07/11 18:52 UTC NOAA

TAF KROA 111740Z 1118/1218 29010G20KT P6SM SCT060
FM120100 31006KT P6SM SKC
FM121600 23005KT P6SM SCT060

Example: see airport list